createdAt,value
2023-05-05T00:00:16.107Z,16.29
2023-05-05T00:02:44.167Z,16.51
2023-05-05T00:05:11.689Z,16.60
2023-05-05T00:07:38.868Z,16.36
2023-05-05T00:10:10.078Z,16.34
2023-05-05T00:12:37.618Z,16.33
2023-05-05T00:15:05.179Z,16.29
2023-05-05T00:17:33.437Z,16.24
2023-05-05T00:20:00.631Z,16.21
2023-05-05T00:22:38.334Z,16.04
2023-05-05T00:25:08.232Z,16.03
2023-05-05T00:28:00.305Z,15.96
2023-05-05T00:30:28.128Z,15.94
2023-05-05T00:32:56.098Z,15.93
2023-05-05T00:35:23.395Z,16.10
2023-05-05T00:37:50.588Z,16.29
2023-05-05T00:40:25.817Z,16.32
2023-05-05T00:42:55.374Z,16.15
2023-05-05T00:45:22.321Z,16.08
2023-05-05T00:48:00.576Z,15.99
2023-05-05T00:50:30.602Z,15.96
2023-05-05T00:53:04.495Z,15.87
2023-05-05T00:55:33.111Z,16.04
2023-05-05T00:58:01.458Z,16.24
2023-05-05T01:00:29.105Z,16.20
2023-05-05T01:02:56.398Z,16.07
2023-05-05T01:05:28.479Z,15.89
2023-05-05T01:08:16.168Z,15.86
2023-05-05T01:10:55.655Z,15.84
2023-05-05T01:14:01.790Z,15.83
2023-05-05T01:16:35.902Z,15.77
2023-05-05T01:19:07.014Z,15.77
2023-05-05T01:22:34.844Z,15.70
2023-05-05T01:25:10.369Z,15.57
2023-05-05T01:27:58.728Z,15.56
2023-05-05T01:30:50.613Z,15.67
2023-05-05T01:33:26.008Z,15.66
2023-05-05T01:35:58.559Z,15.79
2023-05-05T01:38:35.162Z,15.82
2023-05-05T01:41:17.617Z,15.77
2023-05-05T01:43:48.195Z,15.65
2023-05-05T01:46:16.661Z,15.58
2023-05-05T01:48:46.095Z,15.57
2023-05-05T01:51:13.979Z,15.53
2023-05-05T01:53:41.900Z,15.40
2023-05-05T01:56:11.655Z,15.30
2023-05-05T01:58:39.710Z,15.27
2023-05-05T02:01:07.175Z,15.33
2023-05-05T02:03:42.721Z,15.54
2023-05-05T02:06:21.036Z,15.52
2023-05-05T02:08:49.923Z,15.36
2023-05-05T02:11:20.213Z,15.17
2023-05-05T02:13:54.808Z,15.09
2023-05-05T02:16:24.250Z,15.06
2023-05-05T02:18:55.927Z,15.07
2023-05-05T02:21:23.265Z,15.13
2023-05-05T02:23:52.215Z,15.19
2023-05-05T02:26:28.823Z,15.17
2023-05-05T02:29:04.578Z,15.04
2023-05-05T02:31:43.944Z,15.02
2023-05-05T02:34:16.219Z,14.86
2023-05-05T02:36:45.383Z,14.89
2023-05-05T02:39:32.212Z,14.87
2023-05-05T02:42:10.261Z,14.84
2023-05-05T02:44:42.704Z,14.80
2023-05-05T02:47:10.168Z,14.61
2023-05-05T02:49:37.570Z,14.61
2023-05-05T02:52:10.524Z,14.72
2023-05-05T02:54:42.195Z,14.75
2023-05-05T02:57:18.938Z,14.84
2023-05-05T03:00:16.840Z,14.73
2023-05-05T03:03:29.194Z,14.87
2023-05-05T03:06:10.596Z,14.97
2023-05-05T03:08:44.355Z,14.99
2023-05-05T03:11:59.474Z,14.85
2023-05-05T03:16:02.024Z,14.82
2023-05-05T03:18:38.770Z,14.81
2023-05-05T03:24:30.529Z,14.61
2023-05-05T03:27:19.013Z,14.72
2023-05-05T03:29:49.501Z,15.21
2023-05-05T03:32:24.550Z,15.47
2023-05-05T03:35:00.256Z,15.44
2023-05-05T03:37:57.467Z,15.13
2023-05-05T03:40:40.450Z,15.06
2023-05-05T03:43:11.095Z,15.51
2023-05-05T03:45:38.157Z,15.58
2023-05-05T03:48:10.003Z,15.89
2023-05-05T03:50:46.536Z,15.95
2023-05-05T03:53:21.319Z,15.67
2023-05-05T03:55:48.629Z,15.38
2023-05-05T03:58:17.016Z,15.06
2023-05-05T04:00:46.880Z,14.89
2023-05-05T04:03:20.044Z,14.82
2023-05-05T04:05:56.455Z,14.93
2023-05-05T04:08:23.457Z,15.19
2023-05-05T04:10:50.515Z,15.35
2023-05-05T04:13:20.341Z,15.22
2023-05-05T04:15:51.273Z,15.05
2023-05-05T04:18:33.585Z,14.87
2023-05-05T04:21:45.615Z,14.91
2023-05-05T04:24:12.980Z,14.79
2023-05-05T04:26:43.888Z,15.11
2023-05-05T04:29:11.315Z,15.11
2023-05-05T04:31:38.468Z,14.93
2023-05-05T04:34:14.291Z,14.99
2023-05-05T04:36:42.103Z,14.95
2023-05-05T04:39:10.898Z,14.85
2023-05-05T04:41:37.919Z,15.10
2023-05-05T04:44:05.042Z,15.14
2023-05-05T04:46:35.177Z,15.71
2023-05-05T04:49:03.918Z,16.33
2023-05-05T04:51:32.424Z,16.27
2023-05-05T04:53:59.438Z,15.86
2023-05-05T04:56:33.949Z,15.74
2023-05-05T04:59:05.143Z,16.20
2023-05-05T05:01:36.912Z,16.82
2023-05-05T05:04:05.927Z,17.28
2023-05-05T05:06:35.895Z,17.47
2023-05-05T05:09:03.895Z,17.16
2023-05-05T05:11:30.989Z,16.64
2023-05-05T05:13:58.038Z,16.49
2023-05-05T05:16:26.689Z,16.79
2023-05-05T05:18:54.976Z,16.80
2023-05-05T05:21:24.053Z,16.74
2023-05-05T05:23:54.030Z,16.62
2023-05-05T05:26:24.986Z,16.80
2023-05-05T05:28:52.974Z,17.30
2023-05-05T05:31:19.984Z,17.68
2023-05-05T05:33:51.376Z,17.49
2023-05-05T05:36:20.424Z,17.27
2023-05-05T05:38:47.332Z,16.89
2023-05-05T05:41:14.482Z,16.67
2023-05-05T05:43:43.130Z,16.71
2023-05-05T05:46:11.054Z,16.92
2023-05-05T05:48:40.015Z,16.64
2023-05-05T05:51:07.022Z,16.75
2023-05-05T05:53:34.012Z,16.82
2023-05-05T05:56:05.986Z,16.94
2023-05-05T05:58:36.245Z,17.01
2023-05-05T06:01:05.698Z,17.52
2023-05-05T06:03:34.215Z,17.54
2023-05-05T06:06:03.947Z,17.74
2023-05-05T06:08:30.953Z,17.31
2023-05-05T06:11:06.893Z,17.11
2023-05-05T06:13:35.465Z,17.04
2023-05-05T06:16:16.702Z,17.07
2023-05-05T06:18:57.512Z,17.32
2023-05-05T06:21:24.979Z,17.46
2023-05-05T06:23:53.118Z,17.56
2023-05-05T06:26:20.402Z,17.46
2023-05-05T06:28:48.101Z,17.57
2023-05-05T06:31:16.114Z,17.80
2023-05-05T06:33:43.264Z,17.63
2023-05-05T06:36:10.281Z,17.66
2023-05-05T06:38:37.820Z,17.70
2023-05-05T06:41:04.933Z,17.72
2023-05-05T06:43:32.081Z,17.87
2023-05-05T06:46:04.966Z,17.89
2023-05-05T06:48:34.622Z,17.84
2023-05-05T06:51:03.115Z,18.13
2023-05-05T06:53:30.197Z,18.00
2023-05-05T06:56:01.170Z,17.96
2023-05-05T06:58:31.176Z,17.99
2023-05-05T07:00:58.693Z,18.30
2023-05-05T07:03:26.448Z,18.11
2023-05-05T07:05:57.853Z,18.11
2023-05-05T07:08:25.480Z,18.20
2023-05-05T07:10:52.494Z,18.28
2023-05-05T07:13:21.098Z,18.38
2023-05-05T07:15:48.213Z,18.40
2023-05-05T07:18:22.077Z,18.60
2023-05-05T07:20:49.066Z,18.49
2023-05-05T07:23:16.580Z,18.45
2023-05-05T07:25:45.151Z,18.49
2023-05-05T07:28:12.159Z,18.60
2023-05-05T07:30:39.117Z,18.53
2023-05-05T07:33:09.023Z,18.78
2023-05-05T07:35:37.115Z,18.66
2023-05-05T07:38:05.177Z,18.68
2023-05-05T07:40:36.764Z,18.63
2023-05-05T07:43:03.670Z,18.67
2023-05-05T07:45:30.700Z,18.71
2023-05-05T07:47:57.856Z,18.80
2023-05-05T07:50:25.556Z,18.60
2023-05-05T07:53:10.756Z,18.77
2023-05-05T07:55:55.661Z,18.71
2023-05-05T07:58:22.560Z,18.83
2023-05-05T08:00:51.244Z,18.81
2023-05-05T08:03:21.982Z,19.00
2023-05-05T08:05:50.616Z,18.92
2023-05-05T08:08:18.639Z,18.90
2023-05-05T08:10:46.704Z,18.75
2023-05-05T08:13:16.320Z,18.79
2023-05-05T08:15:57.066Z,18.96
2023-05-05T08:18:34.435Z,18.98
2023-05-05T08:21:02.306Z,18.96
2023-05-05T08:23:31.342Z,18.86
2023-05-05T08:26:04.967Z,18.85
2023-05-05T08:28:34.906Z,18.98
2023-05-05T08:31:16.513Z,19.08
2023-05-05T08:33:46.669Z,19.19
2023-05-05T08:36:14.070Z,19.37
2023-05-05T08:38:41.020Z,19.36
2023-05-05T08:41:15.752Z,19.24
2023-05-05T08:43:47.119Z,19.13
2023-05-05T08:46:14.329Z,19.05
2023-05-05T08:48:43.725Z,19.16
2023-05-05T08:51:18.792Z,19.10
2023-05-05T08:54:01.642Z,18.95
2023-05-05T08:56:34.739Z,19.03
2023-05-05T08:59:02.951Z,18.90
2023-05-05T09:01:32.711Z,19.47
2023-05-05T09:04:04.357Z,19.72
2023-05-05T09:06:34.141Z,19.60
2023-05-05T09:09:02.606Z,19.43
2023-05-05T09:11:30.643Z,19.24
2023-05-05T09:13:57.887Z,19.22
2023-05-05T09:16:26.772Z,19.31
2023-05-05T09:19:05.276Z,19.82
2023-05-05T09:21:32.698Z,19.97
2023-05-05T09:24:11.449Z,20.43
2023-05-05T09:26:42.794Z,19.94
2023-05-05T09:29:10.000Z,19.89
2023-05-05T09:31:40.791Z,19.80
2023-05-05T09:34:17.245Z,19.74
2023-05-05T09:36:47.910Z,20.39
2023-05-05T09:39:22.365Z,20.67
2023-05-05T09:41:53.323Z,21.02
2023-05-05T09:44:37.806Z,21.00
2023-05-05T09:47:18.090Z,20.61
2023-05-05T09:50:05.414Z,20.31
2023-05-05T09:52:32.521Z,20.24
2023-05-05T09:55:01.658Z,20.45
2023-05-05T09:57:35.853Z,20.25
2023-05-05T10:00:06.102Z,20.04
2023-05-05T10:02:39.417Z,20.13
2023-05-05T10:05:15.092Z,20.32
2023-05-05T10:07:46.475Z,20.59
2023-05-05T10:10:15.520Z,20.47
2023-05-05T10:12:43.061Z,20.61
2023-05-05T10:15:11.619Z,21.25
2023-05-05T10:18:02.360Z,21.70
2023-05-05T10:20:36.535Z,22.06
2023-05-05T10:23:07.281Z,21.75
2023-05-05T10:25:58.671Z,21.16
2023-05-05T10:28:33.325Z,20.94
2023-05-05T10:31:05.734Z,20.78
2023-05-05T10:34:10.574Z,20.92
2023-05-05T10:36:42.356Z,21.27
2023-05-05T10:39:11.088Z,21.29
2023-05-05T10:41:38.335Z,21.09
2023-05-05T10:44:11.037Z,20.95
2023-05-05T10:46:41.344Z,20.97
2023-05-05T10:49:08.246Z,20.96
2023-05-05T10:51:42.194Z,21.13
2023-05-05T10:54:45.858Z,21.26
2023-05-05T10:57:19.062Z,22.23
2023-05-05T10:59:47.912Z,22.02
2023-05-05T11:02:29.711Z,21.31
2023-05-05T11:05:18.613Z,21.42
2023-05-05T11:07:48.357Z,21.42
2023-05-05T11:10:17.933Z,21.80
2023-05-05T11:13:02.327Z,22.64
2023-05-05T11:15:39.988Z,22.57
2023-05-05T11:18:37.072Z,23.39
2023-05-05T11:21:08.168Z,22.59
2023-05-05T11:23:35.546Z,21.70
2023-05-05T11:26:02.482Z,21.51
2023-05-05T11:28:31.833Z,21.59
2023-05-05T11:31:01.726Z,22.54
2023-05-05T11:33:34.196Z,22.19
2023-05-05T11:36:06.696Z,21.46
2023-05-05T11:39:10.637Z,21.35
2023-05-05T11:41:49.669Z,21.26
2023-05-05T11:44:29.477Z,21.48
2023-05-05T11:47:02.815Z,21.66
2023-05-05T11:49:37.785Z,21.67
2023-05-05T11:52:15.258Z,22.33
2023-05-05T11:54:51.075Z,22.31
2023-05-05T11:57:32.126Z,21.97
2023-05-05T12:00:08.509Z,22.17
2023-05-05T12:02:41.337Z,21.94
2023-05-05T12:05:11.665Z,21.68
2023-05-05T12:07:42.257Z,21.54
2023-05-05T12:10:12.430Z,21.83
2023-05-05T12:12:43.368Z,21.74
2023-05-05T12:15:13.117Z,22.13
2023-05-05T12:17:46.253Z,22.47
2023-05-05T12:20:13.741Z,23.24
2023-05-05T12:22:46.548Z,22.85
2023-05-05T12:25:14.832Z,22.98
2023-05-05T12:27:52.465Z,22.75
2023-05-05T12:30:20.776Z,22.40
2023-05-05T12:33:01.932Z,22.41
2023-05-05T12:35:32.634Z,22.55
2023-05-05T12:37:59.700Z,22.10
2023-05-05T12:40:52.171Z,22.27
2023-05-05T12:43:29.679Z,22.41
2023-05-05T12:46:07.139Z,22.04
2023-05-05T12:48:47.240Z,22.24
2023-05-05T12:51:23.820Z,23.12
2023-05-05T12:54:11.655Z,23.29
2023-05-05T12:56:41.888Z,23.13
2023-05-05T12:59:33.216Z,23.16
2023-05-05T13:02:03.861Z,22.88
2023-05-05T13:04:48.938Z,22.49
2023-05-05T13:07:17.168Z,22.43
2023-05-05T13:09:46.298Z,22.44
2023-05-05T13:12:20.740Z,22.61
2023-05-05T13:14:49.387Z,22.68
2023-05-05T13:17:19.300Z,22.77
2023-05-05T13:19:46.816Z,22.45
2023-05-05T13:22:17.913Z,21.97
2023-05-05T13:24:52.355Z,22.10
2023-05-05T13:27:20.718Z,22.20
2023-05-05T13:29:48.046Z,22.19
2023-05-05T13:32:15.108Z,22.19
2023-05-05T13:34:44.539Z,21.91
2023-05-05T13:37:11.591Z,21.88
2023-05-05T13:39:38.695Z,22.45
2023-05-05T13:42:10.775Z,22.45
2023-05-05T13:44:53.693Z,22.29
2023-05-05T13:47:21.354Z,22.10
2023-05-05T13:49:49.215Z,21.84
2023-05-05T13:52:18.946Z,22.12
2023-05-05T13:54:45.938Z,22.03
2023-05-05T13:57:24.290Z,21.76
2023-05-05T13:59:52.457Z,21.90
2023-05-05T14:02:21.622Z,21.88
2023-05-05T14:04:50.466Z,21.62
2023-05-05T14:07:34.024Z,21.30
2023-05-05T14:10:03.712Z,20.99
2023-05-05T14:12:33.737Z,20.87
2023-05-05T14:15:09.200Z,21.17
2023-05-05T14:17:48.345Z,21.15
2023-05-05T14:20:22.775Z,21.42
2023-05-05T14:22:50.976Z,21.37
2023-05-05T14:25:24.324Z,21.52
2023-05-05T14:28:10.516Z,21.35
2023-05-05T14:30:41.159Z,21.27
2023-05-05T14:33:08.263Z,21.65
2023-05-05T14:35:45.512Z,21.93
2023-05-05T14:38:12.690Z,21.92
2023-05-05T14:40:48.561Z,22.00
2023-05-05T14:43:16.010Z,21.44
2023-05-05T14:45:44.541Z,21.09
2023-05-05T14:48:11.863Z,20.98
2023-05-05T14:50:44.763Z,20.82
2023-05-05T14:53:18.554Z,21.60
2023-05-05T14:55:46.333Z,21.99
2023-05-05T14:58:13.738Z,22.13
2023-05-05T15:00:41.041Z,22.03
2023-05-05T15:03:08.187Z,21.88
2023-05-05T15:05:45.838Z,22.06
2023-05-05T15:08:19.537Z,22.37
2023-05-05T15:11:16.338Z,22.07
2023-05-05T15:13:43.258Z,22.09
2023-05-05T15:16:14.816Z,22.43
2023-05-05T15:18:42.023Z,23.03
2023-05-05T15:21:09.175Z,23.10
2023-05-05T15:23:37.520Z,23.03
2023-05-05T15:26:12.365Z,22.83
2023-05-05T15:28:39.413Z,22.66
2023-05-05T15:31:06.601Z,22.84
2023-05-05T15:33:33.894Z,23.11
2023-05-05T15:36:00.912Z,23.57
2023-05-05T15:38:29.390Z,23.37
2023-05-05T15:40:56.530Z,23.38
2023-05-05T15:43:23.593Z,23.10
2023-05-05T15:45:51.747Z,22.67
2023-05-05T15:48:20.334Z,22.12
2023-05-05T15:50:47.796Z,22.33
2023-05-05T15:53:20.993Z,22.16
2023-05-05T15:55:49.292Z,22.10
2023-05-05T15:58:16.286Z,21.83
2023-05-05T16:00:47.197Z,21.45
2023-05-05T16:03:14.385Z,21.27
2023-05-05T16:05:42.195Z,21.36
2023-05-05T16:08:11.248Z,21.38
2023-05-05T16:10:38.345Z,21.19
2023-05-05T16:13:05.337Z,21.05
2023-05-05T16:15:32.413Z,21.20
2023-05-05T16:17:59.787Z,21.47
2023-05-05T16:20:27.615Z,21.67
2023-05-05T16:22:55.906Z,22.17
2023-05-05T16:25:23.916Z,22.99
2023-05-05T16:27:51.042Z,23.02
2023-05-05T16:30:18.039Z,23.17
2023-05-05T16:32:53.165Z,23.09
2023-05-05T16:35:25.456Z,22.89
2023-05-05T16:37:54.272Z,22.91
2023-05-05T16:40:21.744Z,23.72
2023-05-05T16:42:48.825Z,24.01
2023-05-05T16:45:17.602Z,23.75
2023-05-05T16:47:55.653Z,23.61
2023-05-05T16:50:23.634Z,23.02
2023-05-05T16:52:51.116Z,22.81
2023-05-05T16:55:18.064Z,23.00
2023-05-05T16:57:44.969Z,22.81
2023-05-05T17:03:01.051Z,22.38
2023-05-05T17:05:30.848Z,22.29
2023-05-05T17:07:57.863Z,21.93
2023-05-05T17:10:24.955Z,21.67
2023-05-05T17:12:51.950Z,21.37
2023-05-05T17:15:18.963Z,21.27
2023-05-05T17:17:55.211Z,21.31
2023-05-05T17:20:23.048Z,21.33
2023-05-05T17:22:59.001Z,21.26
2023-05-05T17:25:33.406Z,21.27
2023-05-05T17:28:00.472Z,21.18
2023-05-05T17:30:27.934Z,21.13
2023-05-05T17:32:54.956Z,20.98
2023-05-05T17:35:39.312Z,21.03
2023-05-05T17:38:07.242Z,20.88
2023-05-05T17:40:34.183Z,20.92
2023-05-05T17:43:01.164Z,20.92
2023-05-05T17:45:28.259Z,20.93
2023-05-05T17:47:55.450Z,21.00
2023-05-05T17:50:22.582Z,21.19
2023-05-05T17:52:59.714Z,21.27
2023-05-05T17:55:27.322Z,21.14
2023-05-05T17:57:56.399Z,21.00
2023-05-05T18:00:23.522Z,21.06
2023-05-05T18:03:01.366Z,20.98
2023-05-05T18:05:30.747Z,21.02
2023-05-05T18:07:58.465Z,20.87
2023-05-05T18:10:26.105Z,20.88
2023-05-05T18:12:53.354Z,20.73
2023-05-05T18:15:23.784Z,20.69
2023-05-05T18:17:50.981Z,20.61
2023-05-05T18:20:18.615Z,20.70
2023-05-05T18:22:52.458Z,20.81
2023-05-05T18:25:20.219Z,20.92
2023-05-05T18:27:47.664Z,20.95
2023-05-05T18:30:17.902Z,21.03
2023-05-05T18:32:46.714Z,20.92
2023-05-05T18:35:14.662Z,20.91
2023-05-05T18:37:42.601Z,20.74
2023-05-05T18:40:15.990Z,20.69
2023-05-05T18:42:44.215Z,20.73
2023-05-05T18:45:11.582Z,20.66
2023-05-05T18:47:40.661Z,20.71
2023-05-05T18:50:08.942Z,20.71
2023-05-05T18:52:47.775Z,20.78
2023-05-05T18:55:15.444Z,20.76
2023-05-05T18:57:50.030Z,20.67
2023-05-05T19:00:23.958Z,20.58
2023-05-05T19:02:51.931Z,20.46
2023-05-05T19:05:19.169Z,20.47
2023-05-05T19:07:56.255Z,20.33
2023-05-05T19:10:23.468Z,20.50
2023-05-05T19:12:58.631Z,20.68
2023-05-05T19:15:29.492Z,20.71
2023-05-05T19:18:06.745Z,20.71
2023-05-05T19:20:38.839Z,20.72
2023-05-05T19:23:07.421Z,20.56
2023-05-05T19:25:41.134Z,20.44
2023-05-05T19:28:08.100Z,20.36
2023-05-05T19:30:35.394Z,20.46
2023-05-05T19:33:05.918Z,20.55
2023-05-05T19:35:33.142Z,20.47
2023-05-05T19:38:00.227Z,20.33
2023-05-05T19:40:31.543Z,20.25
2023-05-05T19:43:01.385Z,20.34
2023-05-05T19:45:28.314Z,20.61
2023-05-05T19:47:55.337Z,20.40
2023-05-05T19:50:22.415Z,20.31
2023-05-05T19:52:49.758Z,20.47
2023-05-05T19:55:18.987Z,20.60
2023-05-05T19:57:46.005Z,20.54
2023-05-05T20:00:13.462Z,20.39
2023-05-05T20:02:41.585Z,20.40
2023-05-05T20:05:09.272Z,20.56
2023-05-05T20:07:36.492Z,20.58
2023-05-05T20:10:11.525Z,20.69
2023-05-05T20:12:42.072Z,20.65
2023-05-05T20:15:11.280Z,20.56
2023-05-05T20:17:40.365Z,20.53
2023-05-05T20:20:08.127Z,20.66
2023-05-05T20:22:35.199Z,20.76
2023-05-05T20:25:03.671Z,20.89
2023-05-05T20:27:30.780Z,20.83
2023-05-05T20:29:57.919Z,20.72
2023-05-05T20:32:25.265Z,20.71
2023-05-05T20:34:52.306Z,20.59
2023-05-05T20:37:19.336Z,20.75
2023-05-05T20:39:50.219Z,20.79
2023-05-05T20:42:28.629Z,20.62
2023-05-05T20:44:58.309Z,20.56
2023-05-05T20:47:25.407Z,20.54
2023-05-05T20:49:52.719Z,20.47
2023-05-05T20:52:21.822Z,20.53
2023-05-05T20:54:48.790Z,20.54
2023-05-05T20:57:18.633Z,20.49
2023-05-05T20:59:46.683Z,20.43
2023-05-05T21:02:13.718Z,20.48
2023-05-05T21:04:40.853Z,20.48
2023-05-05T21:07:07.864Z,20.41
2023-05-05T21:09:37.739Z,20.37
2023-05-05T21:12:05.219Z,20.27
2023-05-05T21:14:32.336Z,20.28
2023-05-05T21:16:59.408Z,20.23
2023-05-05T21:19:26.396Z,20.25
2023-05-05T21:21:54.202Z,20.31
2023-05-05T21:24:24.452Z,20.24
2023-05-05T21:26:56.674Z,20.25
2023-05-05T21:29:27.309Z,20.24
2023-05-05T21:32:04.307Z,20.22
2023-05-05T21:34:32.435Z,20.19
2023-05-05T21:37:08.312Z,20.17
2023-05-05T21:39:36.598Z,20.11
2023-05-05T21:42:03.638Z,20.05
2023-05-05T21:44:31.325Z,20.05
2023-05-05T21:47:04.049Z,20.03
2023-05-05T21:49:30.994Z,20.01
2023-05-05T21:52:09.683Z,20.01
2023-05-05T21:54:49.897Z,20.08
2023-05-05T21:57:17.128Z,20.00
2023-05-05T21:59:47.547Z,19.84
2023-05-05T22:02:14.795Z,19.84
2023-05-05T22:04:42.467Z,19.89
2023-05-05T22:07:09.642Z,20.06
2023-05-05T22:09:36.669Z,19.96
2023-05-05T22:12:04.217Z,20.07
2023-05-05T22:14:40.314Z,19.93
2023-05-05T22:17:07.384Z,19.66
2023-05-05T22:19:34.374Z,19.59
2023-05-05T22:22:01.715Z,19.48
2023-05-05T22:24:31.688Z,19.54
2023-05-05T22:27:19.709Z,19.60
2023-05-05T22:29:46.976Z,19.65
2023-05-05T22:32:14.070Z,19.54
2023-05-05T22:34:41.131Z,19.84
2023-05-05T22:37:10.853Z,19.60
2023-05-05T22:39:56.004Z,19.58
2023-05-05T22:42:34.832Z,19.72
2023-05-05T22:45:02.115Z,19.83
2023-05-05T22:47:29.217Z,19.52
2023-05-05T22:50:01.680Z,19.56
2023-05-05T22:52:29.348Z,19.59
2023-05-05T22:54:56.832Z,19.84
2023-05-05T22:57:23.859Z,19.54
2023-05-05T23:00:00.490Z,19.38
2023-05-05T23:02:27.736Z,19.31
2023-05-05T23:04:54.835Z,19.30
2023-05-05T23:07:24.280Z,19.33
2023-05-05T23:09:51.154Z,19.35
2023-05-05T23:12:18.424Z,19.13
2023-05-05T23:14:45.530Z,19.13
2023-05-05T23:17:16.440Z,19.19
2023-05-05T23:19:48.461Z,19.17
2023-05-05T23:22:15.436Z,19.01
2023-05-05T23:24:43.235Z,18.88
2023-05-05T23:27:12.649Z,18.93
2023-05-05T23:29:40.396Z,19.04
2023-05-05T23:32:10.381Z,19.00
2023-05-05T23:34:37.349Z,18.71
2023-05-05T23:37:06.223Z,18.67
2023-05-05T23:39:38.055Z,18.79
2023-05-05T23:42:05.033Z,18.72
2023-05-05T23:44:32.155Z,18.51
2023-05-05T23:47:06.954Z,18.65
2023-05-05T23:49:33.911Z,18.44
2023-05-05T23:52:04.020Z,18.37
2023-05-05T23:54:30.974Z,18.55
2023-05-05T23:56:58.944Z,18.45
2023-05-05T23:59:26.705Z,18.54
